sensor_id;sensor_type;location;lat;lon;timestamp;pressure;altitude;pressure_sealevel;temperature;humidity
68193;BME280;55012;47.562;18.414;2023-08-21T00:00:05;99366.91;;;21.57;100.00
68193;BME280;55012;47.562;18.414;2023-08-21T00:02:31;99360.63;;;21.56;100.00
68193;BME280;55012;47.562;18.414;2023-08-21T00:04:56;99354.34;;;21.56;100.00
68193;BME280;55012;47.562;18.414;2023-08-21T00:07:22;99357.53;;;21.54;100.00
68193;BME280;55012;47.562;18.414;2023-08-21T00:09:48;99355.19;;;21.53;100.00
68193;BME280;55012;47.562;18.414;2023-08-21T00:12:13;99354.00;;;21.54;100.00
68193;BME280;55012;47.562;18.414;2023-08-21T00:14:39;99341.81;;;21.51;100.00
68193;BME280;55012;47.562;18.414;2023-08-21T00:17:04;99342.97;;;21.54;100.00
68193;BME280;55012;47.562;18.414;2023-08-21T00:19:30;99347.28;;;21.55;100.00
68193;BME280;55012;47.562;18.414;2023-08-21T00:21:56;99342.56;;;21.55;100.00
68193;BME280;55012;47.562;18.414;2023-08-21T00:24:21;99338.25;;;21.54;100.00
68193;BME280;55012;47.562;18.414;2023-08-21T00:26:47;99339.06;;;21.51;100.00
68193;BME280;55012;47.562;18.414;2023-08-21T00:29:12;99335.97;;;21.49;100.00
68193;BME280;55012;47.562;18.414;2023-08-21T00:31:38;99336.31;;;21.51;100.00
68193;BME280;55012;47.562;18.414;2023-08-21T00:34:03;99337.88;;;21.79;100.00
68193;BME280;55012;47.562;18.414;2023-08-21T00:36:29;99328.31;;;22.11;100.00
68193;BME280;55012;47.562;18.414;2023-08-21T00:38:54;99324.81;;;22.30;100.00
68193;BME280;55012;47.562;18.414;2023-08-21T00:41:19;99313.09;;;22.26;100.00
68193;BME280;55012;47.562;18.414;2023-08-21T00:43:45;99301.47;;;22.15;100.00
68193;BME280;55012;47.562;18.414;2023-08-21T00:46:10;99305.19;;;22.28;100.00
68193;BME280;55012;47.562;18.414;2023-08-21T00:48:37;99302.56;;;22.41;100.00
68193;BME280;55012;47.562;18.414;2023-08-21T00:51:03;99304.28;;;22.35;100.00
68193;BME280;55012;47.562;18.414;2023-08-21T00:53:30;99311.72;;;22.14;100.00
68193;BME280;55012;47.562;18.414;2023-08-21T00:55:56;99325.78;;;21.97;100.00
68193;BME280;55012;47.562;18.414;2023-08-21T00:58:21;99326.84;;;21.79;100.00
68193;BME280;55012;47.562;18.414;2023-08-21T01:00:48;99331.38;;;21.66;100.00
68193;BME280;55012;47.562;18.414;2023-08-21T01:03:15;99337.91;;;21.52;100.00
68193;BME280;55012;47.562;18.414;2023-08-21T01:05:41;99345.16;;;21.39;100.00
68193;BME280;55012;47.562;18.414;2023-08-21T01:08:14;99341.00;;;21.24;100.00
68193;BME280;55012;47.562;18.414;2023-08-21T01:10:52;99361.63;;;21.12;100.00
68193;BME280;55012;47.562;18.414;2023-08-21T01:13:30;99365.66;;;21.04;100.00
68193;BME280;55012;47.562;18.414;2023-08-21T01:16:00;99369.69;;;20.96;100.00
68193;BME280;55012;47.562;18.414;2023-08-21T01:18:26;99384.66;;;20.91;100.00
68193;BME280;55012;47.562;18.414;2023-08-21T01:20:52;99381.13;;;20.91;100.00
68193;BME280;55012;47.562;18.414;2023-08-21T01:23:34;99381.97;;;20.88;100.00
68193;BME280;55012;47.562;18.414;2023-08-21T01:26:00;99381.19;;;20.84;100.00
68193;BME280;55012;47.562;18.414;2023-08-21T01:28:26;99385.94;;;20.83;100.00
68193;BME280;55012;47.562;18.414;2023-08-21T01:30:59;99385.97;;;20.80;100.00
68193;BME280;55012;47.562;18.414;2023-08-21T01:33:26;99389.22;;;20.71;100.00
68193;BME280;55012;47.562;18.414;2023-08-21T01:35:54;99395.50;;;20.68;100.00
68193;BME280;55012;47.562;18.414;2023-08-21T01:38:23;99392.44;;;20.62;100.00
68193;BME280;55012;47.562;18.414;2023-08-21T01:40:49;99388.94;;;20.58;100.00
68193;BME280;55012;47.562;18.414;2023-08-21T01:43:14;99387.03;;;20.55;100.00
68193;BME280;55012;47.562;18.414;2023-08-21T01:45:40;99388.63;;;20.53;100.00
68193;BME280;55012;47.562;18.414;2023-08-21T01:48:06;99393.78;;;20.47;100.00
68193;BME280;55012;47.562;18.414;2023-08-21T01:50:31;99384.00;;;20.39;100.00
68193;BME280;55012;47.562;18.414;2023-08-21T01:52:57;99380.13;;;20.33;100.00
68193;BME280;55012;47.562;18.414;2023-08-21T01:55:22;99387.22;;;20.30;100.00
68193;BME280;55012;47.562;18.414;2023-08-21T01:57:48;99380.59;;;20.28;100.00
68193;BME280;55012;47.562;18.414;2023-08-21T02:00:13;99387.25;;;20.27;100.00
68193;BME280;55012;47.562;18.414;2023-08-21T02:02:39;99373.91;;;20.25;100.00
68193;BME280;55012;47.562;18.414;2023-08-21T02:05:05;99376.66;;;20.25;100.00
68193;BME280;55012;47.562;18.414;2023-08-21T02:07:30;99376.31;;;20.23;100.00
68193;BME280;55012;47.562;18.414;2023-08-21T02:09:56;99371.63;;;20.20;100.00
68193;BME280;55012;47.562;18.414;2023-08-21T02:12:21;99392.41;;;20.21;100.00
68193;BME280;55012;47.562;18.414;2023-08-21T02:14:47;99366.50;;;20.22;100.00
68193;BME280;55012;47.562;18.414;2023-08-21T02:17:12;99375.53;;;20.23;100.00
68193;BME280;55012;47.562;18.414;2023-08-21T02:19:38;99360.88;;;20.36;100.00
68193;BME280;55012;47.562;18.414;2023-08-21T02:22:03;99364.28;;;20.51;100.00
68193;BME280;55012;47.562;18.414;2023-08-21T02:24:29;99357.63;;;20.52;100.00
68193;BME280;55012;47.562;18.414;2023-08-21T02:26:54;99355.88;;;20.69;100.00
68193;BME280;55012;47.562;18.414;2023-08-21T02:29:20;99345.97;;;21.06;100.00
68193;BME280;55012;47.562;18.414;2023-08-21T02:31:45;99329.50;;;21.59;100.00
68193;BME280;55012;47.562;18.414;2023-08-21T02:34:11;99330.09;;;21.98;100.00
68193;BME280;55012;47.562;18.414;2023-08-21T02:36:36;99302.00;;;22.30;100.00
68193;BME280;55012;47.562;18.414;2023-08-21T02:39:02;99292.94;;;22.49;100.00
68193;BME280;55012;47.562;18.414;2023-08-21T02:41:29;99279.75;;;22.60;100.00
68193;BME280;55012;47.562;18.414;2023-08-21T02:43:54;99268.16;;;22.69;100.00
68193;BME280;55012;47.562;18.414;2023-08-21T02:46:20;99269.81;;;22.83;100.00
68193;BME280;55012;47.562;18.414;2023-08-21T02:48:45;99269.09;;;22.98;100.00
68193;BME280;55012;47.562;18.414;2023-08-21T02:51:11;99270.88;;;23.09;100.00
68193;BME280;55012;47.562;18.414;2023-08-21T02:53:36;99268.63;;;23.20;100.00
68193;BME280;55012;47.562;18.414;2023-08-21T02:56:02;99277.88;;;23.30;100.00
68193;BME280;55012;47.562;18.414;2023-08-21T02:58:27;99271.47;;;23.33;100.00
68193;BME280;55012;47.562;18.414;2023-08-21T03:00:53;99272.69;;;23.32;100.00
68193;BME280;55012;47.562;18.414;2023-08-21T03:03:18;99271.13;;;23.31;100.00
68193;BME280;55012;47.562;18.414;2023-08-21T03:05:44;99274.78;;;23.27;100.00
68193;BME280;55012;47.562;18.414;2023-08-21T03:08:09;99274.69;;;23.31;100.00
68193;BME280;55012;47.562;18.414;2023-08-21T03:10:35;99286.59;;;23.28;100.00
68193;BME280;55012;47.562;18.414;2023-08-21T03:13:02;99294.53;;;23.26;100.00
68193;BME280;55012;47.562;18.414;2023-08-21T03:15:28;99289.50;;;23.21;100.00
68193;BME280;55012;47.562;18.414;2023-08-21T03:17:55;99294.25;;;23.20;100.00
68193;BME280;55012;47.562;18.414;2023-08-21T03:20:21;99302.97;;;23.19;100.00
68193;BME280;55012;47.562;18.414;2023-08-21T03:22:46;99309.75;;;23.14;100.00
68193;BME280;55012;47.562;18.414;2023-08-21T03:25:12;99311.06;;;23.10;100.00
68193;BME280;55012;47.562;18.414;2023-08-21T03:27:38;99311.47;;;23.08;100.00
68193;BME280;55012;47.562;18.414;2023-08-21T03:30:05;99318.56;;;23.09;100.00
68193;BME280;55012;47.562;18.414;2023-08-21T03:32:32;99318.19;;;23.07;100.00
68193;BME280;55012;47.562;18.414;2023-08-21T03:34:58;99320.03;;;23.14;100.00
68193;BME280;55012;47.562;18.414;2023-08-21T03:37:24;99319.44;;;23.22;100.00
68193;BME280;55012;47.562;18.414;2023-08-21T03:39:49;99323.25;;;23.29;100.00
68193;BME280;55012;47.562;18.414;2023-08-21T03:42:15;99336.19;;;23.32;100.00
68193;BME280;55012;47.562;18.414;2023-08-21T03:44:40;99333.22;;;23.22;100.00
68193;BME280;55012;47.562;18.414;2023-08-21T03:47:06;99335.75;;;22.97;100.00
68193;BME280;55012;47.562;18.414;2023-08-21T03:49:32;99346.69;;;22.61;100.00
68193;BME280;55012;47.562;18.414;2023-08-21T03:51:57;99356.38;;;22.26;100.00
68193;BME280;55012;47.562;18.414;2023-08-21T03:54:23;99357.78;;;22.14;100.00
68193;BME280;55012;47.562;18.414;2023-08-21T03:56:48;99362.81;;;22.19;100.00
68193;BME280;55012;47.562;18.414;2023-08-21T03:59:13;99364.06;;;22.14;100.00
68193;BME280;55012;47.562;18.414;2023-08-21T04:01:39;99355.22;;;22.00;100.00
68193;BME280;55012;47.562;18.414;2023-08-21T04:04:04;99359.78;;;21.86;100.00
68193;BME280;55012;47.562;18.414;2023-08-21T04:06:30;99366.28;;;21.73;100.00
68193;BME280;55012;47.562;18.414;2023-08-21T04:08:55;99365.78;;;21.54;100.00
68193;BME280;55012;47.562;18.414;2023-08-21T04:11:21;99368.22;;;21.49;100.00
68193;BME280;55012;47.562;18.414;2023-08-21T04:13:46;99373.00;;;21.72;100.00
68193;BME280;55012;47.562;18.414;2023-08-21T04:16:11;99370.91;;;22.30;100.00
68193;BME280;55012;47.562;18.414;2023-08-21T04:18:37;99354.97;;;22.81;100.00
68193;BME280;55012;47.562;18.414;2023-08-21T04:21:04;99348.34;;;22.98;100.00
68193;BME280;55012;47.562;18.414;2023-08-21T04:23:29;99340.06;;;23.18;100.00
68193;BME280;55012;47.562;18.414;2023-08-21T04:26:03;99329.44;;;23.33;100.00
68193;BME280;55012;47.562;18.414;2023-08-21T04:28:32;99321.63;;;23.47;100.00
68193;BME280;55012;47.562;18.414;2023-08-21T04:30:57;99323.88;;;23.52;100.00
68193;BME280;55012;47.562;18.414;2023-08-21T04:33:28;99320.78;;;23.50;100.00
68193;BME280;55012;47.562;18.414;2023-08-21T04:35:53;99331.63;;;23.41;100.00
68193;BME280;55012;47.562;18.414;2023-08-21T04:38:19;99338.50;;;23.33;100.00
68193;BME280;55012;47.562;18.414;2023-08-21T04:40:44;99344.91;;;23.30;100.00
68193;BME280;55012;47.562;18.414;2023-08-21T04:43:10;99350.75;;;23.32;100.00
68193;BME280;55012;47.562;18.414;2023-08-21T04:45:35;99358.63;;;23.34;100.00
68193;BME280;55012;47.562;18.414;2023-08-21T04:48:04;99368.28;;;23.25;100.00
68193;BME280;55012;47.562;18.414;2023-08-21T04:50:30;99371.69;;;23.13;100.00
68193;BME280;55012;47.562;18.414;2023-08-21T04:52:55;99384.50;;;23.04;100.00
68193;BME280;55012;47.562;18.414;2023-08-21T04:55:21;99393.78;;;22.93;100.00
68193;BME280;55012;47.562;18.414;2023-08-21T04:57:46;99399.31;;;22.70;100.00
68193;BME280;55012;47.562;18.414;2023-08-21T05:00:12;99410.59;;;22.56;100.00
68193;BME280;55012;47.562;18.414;2023-08-21T05:02:38;99408.88;;;22.42;100.00
68193;BME280;55012;47.562;18.414;2023-08-21T05:05:03;99404.31;;;22.32;100.00
68193;BME280;55012;47.562;18.414;2023-08-21T05:07:30;99412.78;;;22.21;100.00
68193;BME280;55012;47.562;18.414;2023-08-21T05:09:59;99411.78;;;22.08;100.00
68193;BME280;55012;47.562;18.414;2023-08-21T05:12:24;99412.78;;;22.21;100.00
68193;BME280;55012;47.562;18.414;2023-08-21T05:14:51;99415.63;;;22.61;100.00
68193;BME280;55012;47.562;18.414;2023-08-21T05:17:16;99398.00;;;22.98;100.00
68193;BME280;55012;47.562;18.414;2023-08-21T05:19:42;99375.56;;;23.16;100.00
68193;BME280;55012;47.562;18.414;2023-08-21T05:22:07;99370.09;;;23.32;100.00
68193;BME280;55012;47.562;18.414;2023-08-21T05:24:33;99367.72;;;23.50;100.00
68193;BME280;55012;47.562;18.414;2023-08-21T05:26:58;99362.06;;;23.74;100.00
68193;BME280;55012;47.562;18.414;2023-08-21T05:29:24;99356.19;;;23.88;100.00
68193;BME280;55012;47.562;18.414;2023-08-21T05:31:49;99337.91;;;23.94;100.00
68193;BME280;55012;47.562;18.414;2023-08-21T05:34:14;99343.75;;;23.96;100.00
68193;BME280;55012;47.562;18.414;2023-08-21T05:36:40;99347.75;;;23.95;100.00
68193;BME280;55012;47.562;18.414;2023-08-21T05:39:05;99355.59;;;23.80;100.00
68193;BME280;55012;47.562;18.414;2023-08-21T05:41:33;99368.72;;;23.60;100.00
68193;BME280;55012;47.562;18.414;2023-08-21T05:43:58;99379.75;;;23.40;100.00
68193;BME280;55012;47.562;18.414;2023-08-21T05:46:23;99402.66;;;23.21;100.00
68193;BME280;55012;47.562;18.414;2023-08-21T05:48:49;99405.84;;;22.99;100.00
68193;BME280;55012;47.562;18.414;2023-08-21T05:51:14;99414.00;;;22.87;100.00
68193;BME280;55012;47.562;18.414;2023-08-21T05:53:40;99426.91;;;22.70;100.00
68193;BME280;55012;47.562;18.414;2023-08-21T05:56:05;99439.59;;;22.64;100.00
68193;BME280;55012;47.562;18.414;2023-08-21T05:58:31;99436.91;;;22.60;100.00
68193;BME280;55012;47.562;18.414;2023-08-21T06:00:58;99447.16;;;22.60;100.00
68193;BME280;55012;47.562;18.414;2023-08-21T06:03:24;99451.59;;;22.54;100.00
68193;BME280;55012;47.562;18.414;2023-08-21T06:05:49;99443.53;;;22.43;100.00
68193;BME280;55012;47.562;18.414;2023-08-21T06:08:15;99448.84;;;22.30;100.00
68193;BME280;55012;47.562;18.414;2023-08-21T06:10:40;99456.03;;;22.24;100.00
68193;BME280;55012;47.562;18.414;2023-08-21T06:13:06;99467.81;;;22.25;100.00
68193;BME280;55012;47.562;18.414;2023-08-21T06:15:31;99467.53;;;22.19;100.00
68193;BME280;55012;47.562;18.414;2023-08-21T06:17:58;99456.88;;;22.21;100.00
68193;BME280;55012;47.562;18.414;2023-08-21T06:20:23;99447.72;;;22.28;100.00
68193;BME280;55012;47.562;18.414;2023-08-21T06:22:49;99445.50;;;22.42;100.00
68193;BME280;55012;47.562;18.414;2023-08-21T06:25:14;99442.59;;;22.73;100.00
68193;BME280;55012;47.562;18.414;2023-08-21T06:27:40;99424.81;;;22.97;100.00
68193;BME280;55012;47.562;18.414;2023-08-21T06:30:06;99421.63;;;22.99;100.00
68193;BME280;55012;47.562;18.414;2023-08-21T06:32:32;99420.94;;;22.95;100.00
68193;BME280;55012;47.562;18.414;2023-08-21T06:34:57;99420.22;;;23.11;100.00
68193;BME280;55012;47.562;18.414;2023-08-21T06:37:25;99419.84;;;23.29;100.00
68193;BME280;55012;47.562;18.414;2023-08-21T06:39:51;99416.44;;;23.41;100.00
68193;BME280;55012;47.562;18.414;2023-08-21T06:42:16;99414.19;;;23.36;100.00
68193;BME280;55012;47.562;18.414;2023-08-21T06:44:42;99416.03;;;23.22;100.00
68193;BME280;55012;47.562;18.414;2023-08-21T06:47:07;99417.91;;;23.09;100.00
68193;BME280;55012;47.562;18.414;2023-08-21T06:49:33;99427.91;;;22.99;100.00
68193;BME280;55012;47.562;18.414;2023-08-21T06:51:58;99424.75;;;23.01;100.00
68193;BME280;55012;47.562;18.414;2023-08-21T06:54:24;99424.34;;;23.03;100.00
68193;BME280;55012;47.562;18.414;2023-08-21T06:56:51;99433.03;;;23.01;100.00
68193;BME280;55012;47.562;18.414;2023-08-21T06:59:16;99421.56;;;23.03;100.00
68193;BME280;55012;47.562;18.414;2023-08-21T07:01:42;99428.16;;;23.09;100.00
68193;BME280;55012;47.562;18.414;2023-08-21T07:04:07;99425.66;;;23.14;100.00
68193;BME280;55012;47.562;18.414;2023-08-21T07:06:33;99431.81;;;23.22;100.00
68193;BME280;55012;47.562;18.414;2023-08-21T07:08:58;99425.94;;;23.20;100.00
68193;BME280;55012;47.562;18.414;2023-08-21T07:11:24;99429.91;;;23.19;100.00
68193;BME280;55012;47.562;18.414;2023-08-21T07:13:49;99430.75;;;23.16;100.00
68193;BME280;55012;47.562;18.414;2023-08-21T07:16:15;99438.91;;;23.23;100.00
68193;BME280;55012;47.562;18.414;2023-08-21T07:18:40;99432.03;;;23.31;100.00
68193;BME280;55012;47.562;18.414;2023-08-21T07:21:06;99436.28;;;23.36;100.00
68193;BME280;55012;47.562;18.414;2023-08-21T07:23:31;99431.38;;;23.43;100.00
68193;BME280;55012;47.562;18.414;2023-08-21T07:25:58;99423.97;;;23.57;100.00
68193;BME280;55012;47.562;18.414;2023-08-21T07:28:24;99427.75;;;23.66;100.00
68193;BME280;55012;47.562;18.414;2023-08-21T07:30:58;99426.81;;;23.73;100.00
68193;BME280;55012;47.562;18.414;2023-08-21T07:33:25;99427.53;;;23.77;100.00
68193;BME280;55012;47.562;18.414;2023-08-21T07:36:01;99423.44;;;23.81;100.00
68193;BME280;55012;47.562;18.414;2023-08-21T07:38:27;99429.59;;;23.89;100.00
68193;BME280;55012;47.562;18.414;2023-08-21T07:41:04;99416.81;;;23.95;100.00
68193;BME280;55012;47.562;18.414;2023-08-21T07:43:31;99421.31;;;24.05;100.00
68193;BME280;55012;47.562;18.414;2023-08-21T07:45:57;99412.75;;;24.16;100.00
68193;BME280;55012;47.562;18.414;2023-08-21T07:48:22;99405.00;;;24.27;100.00
68193;BME280;55012;47.562;18.414;2023-08-21T07:50:53;99410.28;;;24.38;100.00
68193;BME280;55012;47.562;18.414;2023-08-21T07:53:19;99405.66;;;24.48;100.00
68193;BME280;55012;47.562;18.414;2023-08-21T07:55:45;99405.47;;;24.55;100.00
68193;BME280;55012;47.562;18.414;2023-08-21T07:58:11;99408.50;;;24.60;100.00
68193;BME280;55012;47.562;18.414;2023-08-21T08:00:37;99409.19;;;24.64;100.00
68193;BME280;55012;47.562;18.414;2023-08-21T08:03:03;99408.22;;;24.71;100.00
68193;BME280;55012;47.562;18.414;2023-08-21T08:05:28;99397.28;;;24.80;100.00
68193;BME280;55012;47.562;18.414;2023-08-21T08:07:54;99390.34;;;24.88;100.00
68193;BME280;55012;47.562;18.414;2023-08-21T08:10:19;99396.00;;;24.98;100.00
68193;BME280;55012;47.562;18.414;2023-08-21T08:12:45;99390.75;;;25.03;100.00
68193;BME280;55012;47.562;18.414;2023-08-21T08:15:10;99392.44;;;25.13;100.00
68193;BME280;55012;47.562;18.414;2023-08-21T08:17:36;99393.78;;;25.21;100.00
68193;BME280;55012;47.562;18.414;2023-08-21T08:20:01;99385.38;;;25.25;100.00
68193;BME280;55012;47.562;18.414;2023-08-21T08:22:27;99390.91;;;25.38;100.00
68193;BME280;55012;47.562;18.414;2023-08-21T08:24:52;99388.28;;;25.47;100.00
68193;BME280;55012;47.562;18.414;2023-08-21T08:27:18;99387.59;;;25.56;100.00
68193;BME280;55012;47.562;18.414;2023-08-21T08:29:43;99386.94;;;25.64;100.00
68193;BME280;55012;47.562;18.414;2023-08-21T08:32:09;99383.63;;;25.69;100.00
68193;BME280;55012;47.562;18.414;2023-08-21T08:34:34;99380.53;;;25.80;100.00
68193;BME280;55012;47.562;18.414;2023-08-21T08:37:00;99377.09;;;25.89;100.00
68193;BME280;55012;47.562;18.414;2023-08-21T08:39:25;99381.19;;;25.97;100.00
68193;BME280;55012;47.562;18.414;2023-08-21T08:41:57;99385.63;;;26.07;100.00
68193;BME280;55012;47.562;18.414;2023-08-21T08:44:25;99386.94;;;26.15;100.00
68193;BME280;55012;47.562;18.414;2023-08-21T08:46:53;99390.72;;;26.09;100.00
68193;BME280;55012;47.562;18.414;2023-08-21T08:49:20;99394.81;;;26.17;100.00
68193;BME280;55012;47.562;18.414;2023-08-21T08:51:46;99394.00;;;26.29;100.00
68193;BME280;55012;47.562;18.414;2023-08-21T08:54:14;99406.50;;;26.46;100.00
68193;BME280;55012;47.562;18.414;2023-08-21T08:56:40;99388.91;;;26.62;100.00
68193;BME280;55012;47.562;18.414;2023-08-21T08:59:07;99401.63;;;26.72;100.00
68193;BME280;55012;47.562;18.414;2023-08-21T09:01:33;99399.59;;;26.85;100.00
68193;BME280;55012;47.562;18.414;2023-08-21T09:03:59;99398.25;;;26.90;100.00
68193;BME280;55012;47.562;18.414;2023-08-21T09:06:25;99397.31;;;26.93;100.00
68193;BME280;55012;47.562;18.414;2023-08-21T09:08:55;99399.72;;;27.04;100.00
68193;BME280;55012;47.562;18.414;2023-08-21T09:11:21;99407.84;;;27.20;100.00
68193;BME280;55012;47.562;18.414;2023-08-21T09:13:49;99403.78;;;27.34;100.00
68193;BME280;55012;47.562;18.414;2023-08-21T09:16:15;99397.81;;;27.44;100.00
68193;BME280;55012;47.562;18.414;2023-08-21T09:21:16;99398.97;;;27.56;100.00
68193;BME280;55012;47.562;18.414;2023-08-21T09:23:42;99399.81;;;27.44;100.00
68193;BME280;55012;47.562;18.414;2023-08-21T09:26:07;99400.22;;;27.33;100.00
68193;BME280;55012;47.562;18.414;2023-08-21T09:28:33;99400.22;;;27.33;100.00
68193;BME280;55012;47.562;18.414;2023-08-21T09:31:00;99395.50;;;27.43;100.00
68193;BME280;55012;47.562;18.414;2023-08-21T09:33:27;99392.75;;;27.52;100.00
68193;BME280;55012;47.562;18.414;2023-08-21T09:35:54;99388.44;;;27.51;100.00
68193;BME280;55012;47.562;18.414;2023-08-21T09:38:20;99399.06;;;27.53;100.00
68193;BME280;55012;47.562;18.414;2023-08-21T09:40:54;99394.28;;;27.53;100.00
68193;BME280;55012;47.562;18.414;2023-08-21T09:43:21;99393.81;;;27.55;100.00
68193;BME280;55012;47.562;18.414;2023-08-21T09:45:49;99387.09;;;27.65;100.00
68193;BME280;55012;47.562;18.414;2023-08-21T09:48:17;99386.38;;;27.74;100.00
68193;BME280;55012;47.562;18.414;2023-08-21T09:50:43;99386.41;;;27.83;100.00
68193;BME280;55012;47.562;18.414;2023-08-21T09:53:09;99379.31;;;27.82;100.00
68193;BME280;55012;47.562;18.414;2023-08-21T09:55:38;99376.25;;;27.89;100.00
68193;BME280;55012;47.562;18.414;2023-08-21T09:58:04;99381.16;;;27.85;100.00
68193;BME280;55012;47.562;18.414;2023-08-21T10:00:33;99380.56;;;27.81;100.00
68193;BME280;55012;47.562;18.414;2023-08-21T10:03:04;99371.31;;;27.93;100.00
68193;BME280;55012;47.562;18.414;2023-08-21T10:05:31;99379.84;;;28.08;100.00
68193;BME280;55012;47.562;18.414;2023-08-21T10:08:00;99363.94;;;28.17;100.00
68193;BME280;55012;47.562;18.414;2023-08-21T10:10:30;99358.25;;;28.30;100.00
68193;BME280;55012;47.562;18.414;2023-08-21T10:12:56;99322.41;;;28.32;100.00
68193;BME280;55012;47.562;18.414;2023-08-21T10:15:22;99292.25;;;28.31;100.00
68193;BME280;55012;47.562;18.414;2023-08-21T10:17:47;99306.13;;;28.21;100.00
68193;BME280;55012;47.562;18.414;2023-08-21T10:20:20;99296.69;;;28.28;100.00
68193;BME280;55012;47.562;18.414;2023-08-21T10:22:52;99303.50;;;28.27;100.00
68193;BME280;55012;47.562;18.414;2023-08-21T10:25:23;99313.41;;;28.37;100.00
68193;BME280;55012;47.562;18.414;2023-08-21T10:27:55;99332.28;;;28.51;100.00
68193;BME280;55012;47.562;18.414;2023-08-21T10:30:26;99344.47;;;28.54;100.00
68193;BME280;55012;47.562;18.414;2023-08-21T10:32:54;99344.63;;;28.69;100.00
68193;BME280;55012;47.562;18.414;2023-08-21T10:35:24;99324.34;;;28.87;100.00
68193;BME280;55012;47.562;18.414;2023-08-21T10:40:39;99281.56;;;29.17;100.00
68193;BME280;55012;47.562;18.414;2023-08-21T10:46:02;99309.53;;;29.32;100.00
68193;BME280;55012;47.562;18.414;2023-08-21T10:48:28;99298.81;;;29.40;100.00
68193;BME280;55012;47.562;18.414;2023-08-21T10:50:54;99295.06;;;29.43;100.00
68193;BME280;55012;47.562;18.414;2023-08-21T10:53:22;99301.56;;;29.49;100.00
68193;BME280;55012;47.562;18.414;2023-08-21T10:55:55;99298.63;;;29.52;100.00
68193;BME280;55012;47.562;18.414;2023-08-21T10:58:20;99297.56;;;29.41;100.00
68193;BME280;55012;47.562;18.414;2023-08-21T11:00:46;99284.78;;;29.25;100.00
68193;BME280;55012;47.562;18.414;2023-08-21T11:03:11;99271.38;;;29.14;100.00
68193;BME280;55012;47.562;18.414;2023-08-21T11:05:37;99267.53;;;29.02;100.00
68193;BME280;55012;47.562;18.414;2023-08-21T11:08:03;99249.84;;;28.72;100.00
68193;BME280;55012;47.562;18.414;2023-08-21T11:10:30;99241.19;;;28.61;100.00
68193;BME280;55012;47.562;18.414;2023-08-21T11:12:58;99236.84;;;28.60;100.00
68193;BME280;55012;47.562;18.414;2023-08-21T11:15:28;99216.47;;;28.45;100.00
68193;BME280;55012;47.562;18.414;2023-08-21T11:17:56;99201.22;;;28.31;100.00
68193;BME280;55012;47.562;18.414;2023-08-21T11:20:23;99213.56;;;28.48;100.00
68193;BME280;55012;47.562;18.414;2023-08-21T11:22:57;99234.47;;;28.86;100.00
68193;BME280;55012;47.562;18.414;2023-08-21T11:25:22;99248.00;;;29.12;100.00
68193;BME280;55012;47.562;18.414;2023-08-21T11:27:48;99250.66;;;29.06;100.00
68193;BME280;55012;47.562;18.414;2023-08-21T11:30:13;99260.09;;;29.08;100.00
68193;BME280;55012;47.562;18.414;2023-08-21T11:32:39;99245.72;;;29.01;100.00
68193;BME280;55012;47.562;18.414;2023-08-21T11:35:05;99239.25;;;28.86;100.00
68193;BME280;55012;47.562;18.414;2023-08-21T11:37:30;99226.75;;;28.81;100.00
68193;BME280;55012;47.562;18.414;2023-08-21T11:39:58;99253.31;;;29.00;100.00
68193;BME280;55012;47.562;18.414;2023-08-21T11:42:31;99259.72;;;29.25;100.00
68193;BME280;55012;47.562;18.414;2023-08-21T11:44:58;99243.09;;;29.06;100.00
68193;BME280;55012;47.562;18.414;2023-08-21T11:47:23;99255.97;;;28.95;100.00
68193;BME280;55012;47.562;18.414;2023-08-21T11:49:50;99295.63;;;29.23;100.00
68193;BME280;55012;47.562;18.414;2023-08-21T11:52:20;99276.56;;;29.30;100.00
68193;BME280;55012;47.562;18.414;2023-08-21T11:54:51;99262.75;;;29.36;100.00
68193;BME280;55012;47.562;18.414;2023-08-21T11:57:17;99270.56;;;29.56;100.00
68193;BME280;55012;47.562;18.414;2023-08-21T11:59:54;99269.06;;;29.70;100.00
68193;BME280;55012;47.562;18.414;2023-08-21T12:02:28;99282.59;;;29.86;100.00
68193;BME280;55012;47.562;18.414;2023-08-21T12:04:55;99281.91;;;29.76;100.00
68193;BME280;55012;47.562;18.414;2023-08-21T12:07:25;99270.38;;;29.59;100.00
68193;BME280;55012;47.562;18.414;2023-08-21T12:09:51;99280.72;;;29.68;100.00
68193;BME280;55012;47.562;18.414;2023-08-21T12:12:17;99276.38;;;29.91;100.00
68193;BME280;55012;47.562;18.414;2023-08-21T12:14:42;99298.34;;;29.98;100.00
68193;BME280;55012;47.562;18.414;2023-08-21T12:17:08;99337.94;;;30.11;100.00
68193;BME280;55012;47.562;18.414;2023-08-21T12:19:33;99332.75;;;30.19;100.00
68193;BME280;55012;47.562;18.414;2023-08-21T12:21:59;99367.25;;;30.31;100.00
68193;BME280;55012;47.562;18.414;2023-08-21T12:24:24;99361.31;;;30.38;100.00
68193;BME280;55012;47.562;18.414;2023-08-21T12:26:50;99342.88;;;30.16;100.00
68193;BME280;55012;47.562;18.414;2023-08-21T12:29:15;99323.56;;;29.80;100.00
68193;BME280;55012;47.562;18.414;2023-08-21T12:31:41;99302.72;;;29.66;100.00
68193;BME280;55012;47.562;18.414;2023-08-21T12:34:07;99319.34;;;29.84;100.00
68193;BME280;55012;47.562;18.414;2023-08-21T12:36:36;99300.53;;;29.70;100.00
68193;BME280;55012;47.562;18.414;2023-08-21T12:39:06;99282.97;;;29.55;100.00
68193;BME280;55012;47.562;18.414;2023-08-21T12:41:32;99262.69;;;29.21;100.00
68193;BME280;55012;47.562;18.414;2023-08-21T12:44:01;99247.03;;;29.24;100.00